sensor_id;sensor_type;location;lat;lon;timestamp;pressure;altitude;pressure_sealevel;temperature;humidity
61674;BME280;47573;43.832;5.974;2023-08-07T00:04:11;94955.16;;;30.08;35.59
61674;BME280;47573;43.832;5.974;2023-08-07T00:10:53;94955.94;;;30.08;35.46
61674;BME280;47573;43.832;5.974;2023-08-07T00:17:43;94952.09;;;30.09;35.57
61674;BME280;47573;43.832;5.974;2023-08-07T00:24:24;94949.34;;;30.09;35.59
61674;BME280;47573;43.832;5.974;2023-08-07T00:31:06;94952.94;;;30.10;35.67
61674;BME280;47573;43.832;5.974;2023-08-07T00:37:46;94955.38;;;30.11;35.82
61674;BME280;47573;43.832;5.974;2023-08-07T00:44:27;94954.53;;;30.11;35.62
61674;BME280;47573;43.832;5.974;2023-08-07T00:51:09;94951.53;;;30.12;35.93
61674;BME280;47573;43.832;5.974;2023-08-07T00:57:50;94949.88;;;30.11;36.45
61674;BME280;47573;43.832;5.974;2023-08-07T01:04:31;94953.66;;;30.15;36.42
61674;BME280;47573;43.832;5.974;2023-08-07T01:11:20;94953.72;;;30.10;36.19
61674;BME280;47573;43.832;5.974;2023-08-07T01:18:03;94960.06;;;30.11;36.37
61674;BME280;47573;43.832;5.974;2023-08-07T01:24:46;94954.53;;;30.11;36.41
61674;BME280;47573;43.832;5.974;2023-08-07T01:31:28;94952.09;;;30.09;36.50
61674;BME280;47573;43.832;5.974;2023-08-07T01:38:12;94948.81;;;30.07;36.40
61674;BME280;47573;43.832;5.974;2023-08-07T01:44:54;94954.34;;;30.07;36.26
61674;BME280;47573;43.832;5.974;2023-08-07T01:51:35;94945.56;;;30.05;36.22
61674;BME280;47573;43.832;5.974;2023-08-07T01:58:15;94938.38;;;30.04;36.35
61674;BME280;47573;43.832;5.974;2023-08-07T02:04:57;94936.78;;;30.03;36.51
61674;BME280;47573;43.832;5.974;2023-08-07T02:11:38;94939.53;;;30.03;36.18
61674;BME280;47573;43.832;5.974;2023-08-07T02:18:18;94944.50;;;30.01;36.46
61674;BME280;47573;43.832;5.974;2023-08-07T02:25:00;94935.72;;;29.99;36.41
61674;BME280;47573;43.832;5.974;2023-08-07T02:31:41;94946.75;;;29.99;36.59
61674;BME280;47573;43.832;5.974;2023-08-07T02:38:21;94936.81;;;29.98;36.56
61674;BME280;47573;43.832;5.974;2023-08-07T02:45:04;94948.97;;;29.97;36.39
61674;BME280;47573;43.832;5.974;2023-08-07T02:51:45;94958.31;;;29.96;36.44
61674;BME280;47573;43.832;5.974;2023-08-07T02:58:26;94944.03;;;29.94;36.64
61674;BME280;47573;43.832;5.974;2023-08-07T03:05:08;94945.69;;;29.95;36.49
61674;BME280;47573;43.832;5.974;2023-08-07T03:11:49;94958.94;;;29.93;36.53
61674;BME280;47573;43.832;5.974;2023-08-07T03:18:29;94962.78;;;29.92;36.45
61674;BME280;47573;43.832;5.974;2023-08-07T03:25:11;94971.66;;;29.89;36.47
61674;BME280;47573;43.832;5.974;2023-08-07T03:31:52;94984.59;;;29.89;36.26
61674;BME280;47573;43.832;5.974;2023-08-07T03:38:32;94983.25;;;29.86;36.63
61674;BME280;47573;43.832;5.974;2023-08-07T03:45:15;94984.06;;;29.87;36.50
61674;BME280;47573;43.832;5.974;2023-08-07T03:51:55;94989.56;;;29.87;36.43
61674;BME280;47573;43.832;5.974;2023-08-07T03:58:35;94988.22;;;29.84;36.45
61674;BME280;47573;43.832;5.974;2023-08-07T04:05:17;94986.59;;;29.83;36.63
61674;BME280;47573;43.832;5.974;2023-08-07T04:11:58;94994.03;;;29.83;36.54
61674;BME280;47573;43.832;5.974;2023-08-07T04:18:38;94999.22;;;29.84;36.45
61674;BME280;47573;43.832;5.974;2023-08-07T04:25:20;95000.63;;;29.82;36.55
61674;BME280;47573;43.832;5.974;2023-08-07T04:32:00;95000.94;;;29.80;36.48
61674;BME280;47573;43.832;5.974;2023-08-07T04:38:41;94999.31;;;29.79;36.53
61674;BME280;47573;43.832;5.974;2023-08-07T04:45:23;95002.06;;;29.79;36.56
61674;BME280;47573;43.832;5.974;2023-08-07T04:52:04;94998.53;;;29.74;36.54
61674;BME280;47573;43.832;5.974;2023-08-07T04:58:44;95011.16;;;29.51;32.59
61674;BME280;47573;43.832;5.974;2023-08-07T05:05:27;95019.22;;;29.09;32.02
61674;BME280;47573;43.832;5.974;2023-08-07T05:12:07;95010.59;;;28.92;31.68
61674;BME280;47573;43.832;5.974;2023-08-07T05:18:48;95014.66;;;28.66;31.69
61674;BME280;47573;43.832;5.974;2023-08-07T05:25:30;95009.22;;;28.60;31.47
61674;BME280;47573;43.832;5.974;2023-08-07T05:32:11;95013.09;;;28.49;31.70
61674;BME280;47573;43.832;5.974;2023-08-07T05:38:51;95014.78;;;28.45;31.80
61674;BME280;47573;43.832;5.974;2023-08-07T05:45:33;95015.97;;;28.29;31.22
61674;BME280;47573;43.832;5.974;2023-08-07T05:52:14;95006.66;;;28.25;31.28
61674;BME280;47573;43.832;5.974;2023-08-07T05:58:54;95017.97;;;28.19;31.68
61674;BME280;47573;43.832;5.974;2023-08-07T06:05:36;95016.91;;;28.10;31.74
61674;BME280;47573;43.832;5.974;2023-08-07T06:12:17;95029.25;;;28.07;31.83
61674;BME280;47573;43.832;5.974;2023-08-07T06:18:57;95032.53;;;28.09;31.78
61674;BME280;47573;43.832;5.974;2023-08-07T06:25:39;95028.16;;;28.08;32.00
61674;BME280;47573;43.832;5.974;2023-08-07T06:32:20;95034.19;;;28.10;32.13
61674;BME280;47573;43.832;5.974;2023-08-07T06:39:00;95023.19;;;28.15;32.46
61674;BME280;47573;43.832;5.974;2023-08-07T06:45:42;95022.06;;;28.21;32.35
61674;BME280;47573;43.832;5.974;2023-08-07T06:52:23;95030.81;;;28.28;32.44
61674;BME280;47573;43.832;5.974;2023-08-07T06:59:04;95028.34;;;28.27;32.06
61674;BME280;47573;43.832;5.974;2023-08-07T07:05:46;95041.22;;;28.31;32.71
61674;BME280;47573;43.832;5.974;2023-08-07T07:12:26;95048.88;;;28.34;32.25
61674;BME280;47573;43.832;5.974;2023-08-07T07:19:07;95046.66;;;28.41;32.19
61674;BME280;47573;43.832;5.974;2023-08-07T07:25:49;95042.00;;;28.42;32.26
61674;BME280;47573;43.832;5.974;2023-08-07T07:32:30;95052.91;;;28.52;32.50
61674;BME280;47573;43.832;5.974;2023-08-07T07:39:10;95045.47;;;28.57;33.22
61674;BME280;47573;43.832;5.974;2023-08-07T07:45:52;95048.97;;;28.73;33.66
61674;BME280;47573;43.832;5.974;2023-08-07T07:52:32;95060.69;;;28.84;33.95
61674;BME280;47573;43.832;5.974;2023-08-07T07:59:13;95063.38;;;28.94;34.15
61674;BME280;47573;43.832;5.974;2023-08-07T08:05:55;95072.00;;;29.11;34.18
61674;BME280;47573;43.832;5.974;2023-08-07T08:12:36;95077.75;;;29.19;34.30
61674;BME280;47573;43.832;5.974;2023-08-07T08:19:16;95081.31;;;29.20;34.10
61674;BME280;47573;43.832;5.974;2023-08-07T08:25:58;95077.94;;;29.28;34.13
61674;BME280;47573;43.832;5.974;2023-08-07T08:32:39;95091.13;;;29.31;34.21
61674;BME280;47573;43.832;5.974;2023-08-07T08:39:19;95074.31;;;29.32;34.28
61674;BME280;47573;43.832;5.974;2023-08-07T08:46:03;95077.84;;;29.38;34.26
61674;BME280;47573;43.832;5.974;2023-08-07T08:52:44;95074.53;;;29.41;34.21
61674;BME280;47573;43.832;5.974;2023-08-07T08:59:25;95081.38;;;29.44;34.21
61674;BME280;47573;43.832;5.974;2023-08-07T09:06:08;95068.16;;;29.46;34.15
61674;BME280;47573;43.832;5.974;2023-08-07T09:12:53;95084.91;;;29.49;34.33
61674;BME280;47573;43.832;5.974;2023-08-07T09:19:35;95096.97;;;29.53;34.11
61674;BME280;47573;43.832;5.974;2023-08-07T09:26:21;95094.75;;;29.55;34.43
61674;BME280;47573;43.832;5.974;2023-08-07T09:33:02;95083.16;;;29.58;34.18
61674;BME280;47573;43.832;5.974;2023-08-07T09:39:44;95096.94;;;29.58;34.20
61674;BME280;47573;43.832;5.974;2023-08-07T09:46:27;95099.09;;;29.61;34.31
61674;BME280;47573;43.832;5.974;2023-08-07T09:53:08;95095.22;;;29.62;34.14
61674;BME280;47573;43.832;5.974;2023-08-07T09:59:49;95100.13;;;29.65;34.14
61674;BME280;47573;43.832;5.974;2023-08-07T10:06:31;95096.28;;;29.66;34.25
61674;BME280;47573;43.832;5.974;2023-08-07T10:13:12;95108.34;;;29.70;34.11
61674;BME280;47573;43.832;5.974;2023-08-07T10:19:53;95103.94;;;29.69;33.75
61674;BME280;47573;43.832;5.974;2023-08-07T10:26:37;95102.28;;;29.73;34.02
61674;BME280;47573;43.832;5.974;2023-08-07T10:33:20;95092.66;;;29.71;34.09
61674;BME280;47573;43.832;5.974;2023-08-07T10:40:01;95098.97;;;29.71;34.10
61674;BME280;47573;43.832;5.974;2023-08-07T10:46:48;95098.97;;;29.71;33.99
61674;BME280;47573;43.832;5.974;2023-08-07T10:53:30;95095.69;;;29.69;34.22
61674;BME280;47573;43.832;5.974;2023-08-07T11:00:12;95106.69;;;29.69;33.11
61674;BME280;47573;43.832;5.974;2023-08-07T11:06:54;95105.06;;;29.68;33.00
61674;BME280;47573;43.832;5.974;2023-08-07T11:13:35;95093.47;;;29.71;33.81
61674;BME280;47573;43.832;5.974;2023-08-07T11:20:15;95079.47;;;29.73;33.47
61674;BME280;47573;43.832;5.974;2023-08-07T11:26:57;95079.69;;;29.76;33.81
61674;BME280;47573;43.832;5.974;2023-08-07T11:33:38;95081.31;;;29.77;33.63
61674;BME280;47573;43.832;5.974;2023-08-07T11:40:19;95078.53;;;29.82;33.36
61674;BME280;47573;43.832;5.974;2023-08-07T11:47:01;95077.34;;;29.88;33.73
61674;BME280;47573;43.832;5.974;2023-08-07T11:53:42;95074.59;;;29.88;34.04
61674;BME280;47573;43.832;5.974;2023-08-07T12:00:25;95065.25;;;29.89;33.39
61674;BME280;47573;43.832;5.974;2023-08-07T12:07:06;95060.72;;;29.98;33.88
61674;BME280;47573;43.832;5.974;2023-08-07T12:13:47;95053.47;;;30.07;34.25
61674;BME280;47573;43.832;5.974;2023-08-07T12:20:28;95046.09;;;30.22;34.25
61674;BME280;47573;43.832;5.974;2023-08-07T12:27:10;95041.13;;;30.24;34.06
61674;BME280;47573;43.832;5.974;2023-08-07T12:33:50;95047.34;;;30.34;34.26
61674;BME280;47573;43.832;5.974;2023-08-07T12:40:31;95035.13;;;30.40;33.86
61674;BME280;47573;43.832;5.974;2023-08-07T12:47:13;95038.94;;;30.44;34.02
61674;BME280;47573;43.832;5.974;2023-08-07T12:53:53;95042.06;;;30.56;34.13
61674;BME280;47573;43.832;5.974;2023-08-07T13:00:34;95031.50;;;30.63;34.29
61674;BME280;47573;43.832;5.974;2023-08-07T13:07:16;95034.72;;;30.70;34.05
61674;BME280;47573;43.832;5.974;2023-08-07T13:13:56;95027.47;;;30.74;34.08
61674;BME280;47573;43.832;5.974;2023-08-07T13:20:36;95027.38;;;30.79;33.83
61674;BME280;47573;43.832;5.974;2023-08-07T13:27:18;95022.13;;;30.83;33.95
61674;BME280;47573;43.832;5.974;2023-08-07T13:33:59;95010.72;;;30.89;33.75
61674;BME280;47573;43.832;5.974;2023-08-07T13:40:39;95017.28;;;30.93;33.91
61674;BME280;47573;43.832;5.974;2023-08-07T13:47:21;95017.50;;;30.97;34.29
61674;BME280;47573;43.832;5.974;2023-08-07T13:54:01;95019.34;;;31.02;34.29
61674;BME280;47573;43.832;5.974;2023-08-07T14:00:42;95018.34;;;31.11;34.32
61674;BME280;47573;43.832;5.974;2023-08-07T14:07:24;95008.16;;;31.12;34.14
61674;BME280;47573;43.832;5.974;2023-08-07T14:14:04;95010.59;;;31.13;34.09
61674;BME280;47573;43.832;5.974;2023-08-07T14:20:45;95007.75;;;31.18;34.09
61674;BME280;47573;43.832;5.974;2023-08-07T14:27:27;95012.06;;;31.24;34.23
61674;BME280;47573;43.832;5.974;2023-08-07T14:34:07;95014.63;;;31.34;34.18
61674;BME280;47573;43.832;5.974;2023-08-07T14:40:47;95018.16;;;31.40;34.58
61674;BME280;47573;43.832;5.974;2023-08-07T14:47:30;95009.88;;;31.40;34.01
61674;BME280;47573;43.832;5.974;2023-08-07T14:54:10;95007.09;;;31.40;34.45
61674;BME280;47573;43.832;5.974;2023-08-07T15:00:53;95006.41;;;31.48;34.62
61674;BME280;47573;43.832;5.974;2023-08-07T15:07:35;95009.03;;;31.39;33.08
61674;BME280;47573;43.832;5.974;2023-08-07T15:14:16;95006.69;;;31.33;32.88
61674;BME280;47573;43.832;5.974;2023-08-07T15:20:58;95003.53;;;31.39;32.80
61674;BME280;47573;43.832;5.974;2023-08-07T15:27:39;95002.66;;;31.25;32.27
61674;BME280;47573;43.832;5.974;2023-08-07T15:34:20;95011.13;;;31.15;32.38
61674;BME280;47573;43.832;5.974;2023-08-07T15:41:00;95002.84;;;31.15;32.21
61674;BME280;47573;43.832;5.974;2023-08-07T15:47:42;95007.13;;;31.08;32.29
61674;BME280;47573;43.832;5.974;2023-08-07T15:54:23;95006.72;;;31.14;31.20
61674;BME280;47573;43.832;5.974;2023-08-07T16:01:03;95002.44;;;31.08;31.63
61674;BME280;47573;43.832;5.974;2023-08-07T16:07:45;94999.13;;;31.06;31.07
61674;BME280;47573;43.832;5.974;2023-08-07T16:14:25;95003.59;;;31.02;31.29
61674;BME280;47573;43.832;5.974;2023-08-07T16:21:08;94999.53;;;31.00;31.62
61674;BME280;47573;43.832;5.974;2023-08-07T16:27:50;95002.28;;;31.00;31.76
61674;BME280;47573;43.832;5.974;2023-08-07T16:34:30;95003.41;;;30.99;31.73
61674;BME280;47573;43.832;5.974;2023-08-07T16:41:11;94997.69;;;30.95;31.83
61674;BME280;47573;43.832;5.974;2023-08-07T16:47:53;94996.03;;;30.94;31.64
61674;BME280;47573;43.832;5.974;2023-08-07T16:54:34;94996.25;;;30.98;31.50
61674;BME280;47573;43.832;5.974;2023-08-07T17:01:14;94995.44;;;30.97;31.22
61674;BME280;47573;43.832;5.974;2023-08-07T17:07:57;95008.31;;;31.02;31.62
61674;BME280;47573;43.832;5.974;2023-08-07T17:14:37;94999.91;;;30.93;31.96
61674;BME280;47573;43.832;5.974;2023-08-07T17:21:20;95021.38;;;30.96;31.97
61674;BME280;47573;43.832;5.974;2023-08-07T17:28:03;95019.75;;;30.95;30.88
61674;BME280;47573;43.832;5.974;2023-08-07T17:34:43;95031.81;;;30.99;31.33
61674;BME280;47573;43.832;5.974;2023-08-07T17:41:24;95029.03;;;30.99;31.15
61674;BME280;47573;43.832;5.974;2023-08-07T17:48:07;95035.66;;;30.98;31.11
61674;BME280;47573;43.832;5.974;2023-08-07T17:54:47;95035.66;;;30.98;31.36
61674;BME280;47573;43.832;5.974;2023-08-07T18:01:28;95049.56;;;30.93;31.25
61674;BME280;47573;43.832;5.974;2023-08-07T18:08:10;95039.19;;;31.04;29.70
61674;BME280;47573;43.832;5.974;2023-08-07T18:14:50;95039.09;;;30.90;29.76
61674;BME280;47573;43.832;5.974;2023-08-07T18:21:31;95035.38;;;30.81;29.86
61674;BME280;47573;43.832;5.974;2023-08-07T18:28:12;95054.75;;;30.76;29.90
61674;BME280;47573;43.832;5.974;2023-08-07T18:34:53;95061.44;;;30.70;29.61
61674;BME280;47573;43.832;5.974;2023-08-07T18:41:33;95068.16;;;30.64;29.18
61674;BME280;47573;43.832;5.974;2023-08-07T18:48:15;95074.41;;;30.51;29.14
61674;BME280;47573;43.832;5.974;2023-08-07T18:54:56;95066.94;;;30.33;29.62
61674;BME280;47573;43.832;5.974;2023-08-07T19:01:36;95068.91;;;30.27;29.77
61674;BME280;47573;43.832;5.974;2023-08-07T19:08:18;95069.84;;;30.17;29.46
61674;BME280;47573;43.832;5.974;2023-08-07T19:14:59;95083.22;;;30.05;29.54
61674;BME280;47573;43.832;5.974;2023-08-07T19:21:39;95095.72;;;29.98;29.90
61674;BME280;47573;43.832;5.974;2023-08-07T19:28:21;95096.84;;;29.63;29.79
61674;BME280;47573;43.832;5.974;2023-08-07T19:35:02;95114.66;;;29.42;30.39
61674;BME280;47573;43.832;5.974;2023-08-07T19:41:42;95112.69;;;29.19;30.91
61674;BME280;47573;43.832;5.974;2023-08-07T19:48:24;95131.25;;;29.32;31.08
61674;BME280;47573;43.832;5.974;2023-08-07T19:55:06;95131.69;;;29.10;31.20
61674;BME280;47573;43.832;5.974;2023-08-07T20:01:47;95130.44;;;28.93;31.69
61674;BME280;47573;43.832;5.974;2023-08-07T20:08:28;95125.56;;;28.80;32.00
61674;BME280;47573;43.832;5.974;2023-08-07T20:15:09;95145.91;;;28.79;31.77
61674;BME280;47573;43.832;5.974;2023-08-07T20:21:50;95155.25;;;28.78;31.84
61674;BME280;47573;43.832;5.974;2023-08-07T20:28:32;95164.09;;;28.70;32.10
61674;BME280;47573;43.832;5.974;2023-08-07T20:35:12;95161.25;;;28.90;32.25
61674;BME280;47573;43.832;5.974;2023-08-07T20:41:53;95173.25;;;28.99;32.33
61674;BME280;47573;43.832;5.974;2023-08-07T20:48:34;95188.13;;;28.98;32.69
61674;BME280;47573;43.832;5.974;2023-08-07T20:55:15;95162.78;;;29.06;32.94
61674;BME280;47573;43.832;5.974;2023-08-07T21:01:56;95145.69;;;29.19;33.04
61674;BME280;47573;43.832;5.974;2023-08-07T21:08:38;95165.47;;;29.21;32.59
61674;BME280;47573;43.832;5.974;2023-08-07T21:15:19;95167.69;;;29.19;32.92
61674;BME280;47573;43.832;5.974;2023-08-07T21:21:59;95149.44;;;29.28;32.82
61674;BME280;47573;43.832;5.974;2023-08-07T21:28:41;95169.56;;;29.23;33.33
61674;BME280;47573;43.832;5.974;2023-08-07T21:35:21;95165.72;;;29.24;33.23
61674;BME280;47573;43.832;5.974;2023-08-07T21:42:02;95158.31;;;29.20;33.97
61674;BME280;47573;43.832;5.974;2023-08-07T21:48:44;95147.72;;;29.37;34.30
61674;BME280;47573;43.832;5.974;2023-08-07T21:55:25;95173.03;;;29.39;34.61
61674;BME280;47573;43.832;5.974;2023-08-07T22:02:06;95171.88;;;29.45;34.66
61674;BME280;47573;43.832;5.974;2023-08-07T22:08:48;95147.63;;;29.47;35.01
61674;BME280;47573;43.832;5.974;2023-08-07T22:15:28;95173.44;;;29.56;34.88
61674;BME280;47573;43.832;5.974;2023-08-07T22:22:09;95180.25;;;29.64;35.02
61674;BME280;47573;43.832;5.974;2023-08-07T22:28:50;95161.50;;;29.66;35.03
61674;BME280;47573;43.832;5.974;2023-08-07T22:35:31;95173.84;;;29.73;34.97
61674;BME280;47573;43.832;5.974;2023-08-07T22:42:11;95151.56;;;29.75;35.15
61674;BME280;47573;43.832;5.974;2023-08-07T22:48:53;95167.22;;;29.79;35.01
61674;BME280;47573;43.832;5.974;2023-08-07T22:55:34;95178.47;;;29.78;35.09
61674;BME280;47573;43.832;5.974;2023-08-07T23:02:14;95178.22;;;29.79;35.03
61674;BME280;47573;43.832;5.974;2023-08-07T23:08:56;95184.19;;;29.86;35.45
61674;BME280;47573;43.832;5.974;2023-08-07T23:15:37;95177.59;;;29.87;35.28
61674;BME280;47573;43.832;5.974;2023-08-07T23:22:17;95180.28;;;29.92;35.28
61674;BME280;47573;43.832;5.974;2023-08-07T23:28:59;95168.72;;;29.90;35.48
61674;BME280;47573;43.832;5.974;2023-08-07T23:35:40;95176.69;;;29.92;35.47
61674;BME280;47573;43.832;5.974;2023-08-07T23:42:20;95175.28;;;29.94;35.42
61674;BME280;47573;43.832;5.974;2023-08-07T23:49:02;95164.28;;;29.94;35.69
61674;BME280;47573;43.832;5.974;2023-08-07T23:55:42;95165.34;;;29.98;35.68
